Aérodrome :
LOGIN :

S'inscrire | Disclaimer

   EN    FR    IT 

 










Légende :    VFR   VFR Marginal   IFR   IFR Intensif   IFR Très Intensif
Visi : 
Plafond : 
>= 8 km
>= 3000ft
5 à 8 km
1000 à 3000 ft
1500m à 5 km
500 à 1000 ft
800 à 1500m
200 à 500 ft
< 800m
< 200 ft
Symboles :   Orages  Brouillard  Fortes neiges  Fortes précipitations  Vent > 20 kt
SIGMETs :   Divers  Orages  Givrage  Turbulence  Onde Orograph.  Cendres Volcan.







- Altitude de l'aérodrome : 55 ft
- Code IATA : DSA
- Voir les cartes d'approche


EGCN - Robin Hood Doncaster Sheffield

DERNIER METAR :
  • 121320Z 21011KT CAVOK 03/01 Q1007

METARs EXPIRÉS :
  • 121250Z 18007KT CAVOK 03/01 Q1006
  • 121220Z 19007KT CAVOK 03/01 Q1007
  • 121150Z 19008KT CAVOK 03/01 Q1007
  • 121120Z 18006KT CAVOK 02/01 Q1007
  • 121050Z 18005KT CAVOK 01/M01 Q1007

TAF TAF EGCN
Valide du 12 à 12h jusqu'au 13 à 12h UTC


121105Z 1212/1312 27005KT 9999 FEW035
BECMG 1212/1216 21012KT
TEMPO 1219/1223 6000 -RADZ BKN010
PROB40
TEMPO 1220/1223 3000 RADZ BKN005
PROB40
TEMPO 1223/1306 3000 BR BKN005
PROB40
TEMPO 1306/1312 6000 BKN010
Pas de NOTAMs connus pour ce terrain.
1 SIGMET publié pour la FIR London (EGTT) :
 
Turbulence forte
EGTT SIGMET 02 VALID 121100/121500 EGRR
EGTT LONDON FIR SEV TURB FCST WI N5100 W00754 - N5207 W00548 - N4929 W00441 - N4926 W00456 - N4856 W00729 - N5100 W00754 FL200/420 MOV E 05KT NC=



MET'MAP, la Météo Aéronautique d'un coup d'oeil ! - Copyright ORBIFLY Décembre 2007 - Disclaimer

ORBIFLY MET'MAP TEAM :

Programmation & Développement : Alexandra Zaïnal
Conception & Développement : Baudouin d'Aumeries
Co-Programmation & Développement : Marc-Olivier Méhu
Soutien technique & logistique : Manuel Goepfert

Contact : metmap@orbifly.com




SOURCES & CREDITS :

   NOAA